ブリスベン の空港の天気 - METARとTAF

ブリスベン空港 ( YBBN / BNE ) - オーストラリア クイーンズランド州ブリスベン
飛行場実況気象(Metar)
観測時間02/01 19:30 AEST (02/01 09:30 UTC)
風向・風速東南東 3m/s
視程10km以上
天気現象
全天の8割程度の雲 雲底高度 430m
全天の8割程度の雲 雲底高度 640m
全天を覆う雲 雲底高度 1100m
気温27℃
湿度84%
気圧1001hPa
METARYBBN 010930Z AUTO 11006KT 9999 // BKN014 BKN021 OVC036 27/24 Q1001
過去の天気等 Google飛行場航空写真 Wunderground天気予報

過去48時間のMETAR

飛行場予報(TAF)
発表時間: 2/01 18:07 AEST (2/01 08:07 UTC)
予報対象時間: 1日18時 AEST ~ 2日22時 AEST
風向・風速東 5m/s
視程10km以上
天気現象弱いしゅう雨
少しの雲 雲底高度 460m
全天の4割程度の雲 雲底高度 910m
1日20時 AEST から
風向・風速東南東 4m/s
視程10km以上
天気現象弱いしゅう雨
少しの雲 雲底高度 460m
全天の4割程度の雲 雲底高度 760m
2日0時 AEST から
風向・風速南 4m/s
視程10km以上
天気現象運行に影響にある天気現象が終了
少しの雲 雲底高度 460m
全天の8割程度の雲 雲底高度 760m
2日9時 AEST から
風向・風速東南東 5m/s
視程10km以上
全天の4割程度の雲 雲底高度 910m
2日13時 AEST から
風向・風速東 5m/s
視程10km以上
少しの雲 雲底高度 910m
TAF AMD YBBN 010807Z 0108/0212 08010KT 9999 -SHRA FEW015 SCT030
FM011000 12007KT 9999 -SHRA FEW015 SCT025
FM011400 19007KT 9999 NSW FEW015 BKN025
FM012300 12010KT 9999 SCT030
FM020300 08010KT 9999 FEW030 INTER 0108/0110 5000 SHRA BKN015